sensor_id;sensor_type;location;lat;lon;timestamp;P1;durP1;ratioP1;P2;durP2;ratioP2
53040;SDS011;39326;42.650;23.248;2022-07-03T00:00:12;12.18;;;11.15;;
53040;SDS011;39326;42.650;23.248;2022-07-03T00:02:38;12.55;;;11.43;;
53040;SDS011;39326;42.650;23.248;2022-07-03T00:05:04;11.80;;;10.90;;
53040;SDS011;39326;42.650;23.248;2022-07-03T00:07:31;12.57;;;11.48;;
53040;SDS011;39326;42.650;23.248;2022-07-03T00:09:57;11.65;;;10.75;;
53040;SDS011;39326;42.650;23.248;2022-07-03T00:12:24;12.55;;;11.32;;
53040;SDS011;39326;42.650;23.248;2022-07-03T00:14:49;11.63;;;10.63;;
53040;SDS011;39326;42.650;23.248;2022-07-03T00:17:17;11.13;;;10.15;;
53040;SDS011;39326;42.650;23.248;2022-07-03T00:19:43;11.27;;;10.18;;
53040;SDS011;39326;42.650;23.248;2022-07-03T00:22:10;12.23;;;11.30;;
53040;SDS011;39326;42.650;23.248;2022-07-03T00:24:48;11.57;;;10.55;;
53040;SDS011;39326;42.650;23.248;2022-07-03T00:27:16;11.85;;;10.82;;
53040;SDS011;39326;42.650;23.248;2022-07-03T00:29:44;11.75;;;10.70;;
53040;SDS011;39326;42.650;23.248;2022-07-03T00:32:11;11.48;;;10.55;;
53040;SDS011;39326;42.650;23.248;2022-07-03T00:34:39;11.20;;;10.30;;
53040;SDS011;39326;42.650;23.248;2022-07-03T00:37:08;11.25;;;10.27;;
53040;SDS011;39326;42.650;23.248;2022-07-03T00:39:38;12.57;;;11.40;;
53040;SDS011;39326;42.650;23.248;2022-07-03T00:42:06;12.13;;;11.02;;
53040;SDS011;39326;42.650;23.248;2022-07-03T00:44:34;13.23;;;12.13;;
53040;SDS011;39326;42.650;23.248;2022-07-03T00:47:07;12.43;;;11.43;;
53040;SDS011;39326;42.650;23.248;2022-07-03T00:49:34;12.68;;;11.68;;
53040;SDS011;39326;42.650;23.248;2022-07-03T00:52:04;12.65;;;11.55;;
53040;SDS011;39326;42.650;23.248;2022-07-03T00:54:32;12.38;;;11.27;;
53040;SDS011;39326;42.650;23.248;2022-07-03T00:57:00;12.10;;;11.20;;
53040;SDS011;39326;42.650;23.248;2022-07-03T00:59:27;12.00;;;11.07;;
53040;SDS011;39326;42.650;23.248;2022-07-03T01:01:55;12.77;;;11.77;;
53040;SDS011;39326;42.650;23.248;2022-07-03T01:18:28;11.90;;;11.00;;
53040;SDS011;39326;42.650;23.248;2022-07-03T01:21:08;12.27;;;11.23;;
53040;SDS011;39326;42.650;23.248;2022-07-03T01:23:46;12.65;;;11.57;;
53040;SDS011;39326;42.650;23.248;2022-07-03T01:26:21;12.93;;;11.80;;
53040;SDS011;39326;42.650;23.248;2022-07-03T01:28:52;14.85;;;13.55;;
53040;SDS011;39326;42.650;23.248;2022-07-03T01:31:19;13.02;;;11.90;;
53040;SDS011;39326;42.650;23.248;2022-07-03T01:33:47;13.45;;;12.13;;
53040;SDS011;39326;42.650;23.248;2022-07-03T01:36:16;13.25;;;12.15;;
53040;SDS011;39326;42.650;23.248;2022-07-03T01:38:45;12.25;;;11.13;;
53040;SDS011;39326;42.650;23.248;2022-07-03T01:41:11;12.57;;;11.48;;
53040;SDS011;39326;42.650;23.248;2022-07-03T01:43:55;12.43;;;11.32;;
53040;SDS011;39326;42.650;23.248;2022-07-03T01:46:26;13.33;;;12.07;;
53040;SDS011;39326;42.650;23.248;2022-07-03T01:48:54;12.52;;;11.63;;
53040;SDS011;39326;42.650;23.248;2022-07-03T01:51:21;12.77;;;11.67;;
53040;SDS011;39326;42.650;23.248;2022-07-03T01:53:49;14.27;;;13.10;;
53040;SDS011;39326;42.650;23.248;2022-07-03T01:56:23;13.40;;;12.13;;
53040;SDS011;39326;42.650;23.248;2022-07-03T01:58:51;12.55;;;11.60;;
53040;SDS011;39326;42.650;23.248;2022-07-03T02:01:20;13.57;;;12.57;;
53040;SDS011;39326;42.650;23.248;2022-07-03T02:03:52;13.23;;;12.13;;
53040;SDS011;39326;42.650;23.248;2022-07-03T02:06:29;13.30;;;12.18;;
53040;SDS011;39326;42.650;23.248;2022-07-03T02:09:05;14.15;;;12.88;;
53040;SDS011;39326;42.650;23.248;2022-07-03T02:11:34;13.27;;;12.15;;
53040;SDS011;39326;42.650;23.248;2022-07-03T02:14:17;15.48;;;14.02;;
53040;SDS011;39326;42.650;23.248;2022-07-03T02:17:04;14.30;;;13.17;;
53040;SDS011;39326;42.650;23.248;2022-07-03T02:22:11;14.87;;;13.67;;
53040;SDS011;39326;42.650;23.248;2022-07-03T02:24:44;14.57;;;13.35;;
53040;SDS011;39326;42.650;23.248;2022-07-03T02:27:15;15.40;;;14.10;;
53040;SDS011;39326;42.650;23.248;2022-07-03T02:32:25;13.38;;;12.38;;
53040;SDS011;39326;42.650;23.248;2022-07-03T02:35:00;14.60;;;13.50;;
53040;SDS011;39326;42.650;23.248;2022-07-03T02:37:30;14.47;;;13.37;;
53040;SDS011;39326;42.650;23.248;2022-07-03T02:40:04;12.88;;;11.93;;
53040;SDS011;39326;42.650;23.248;2022-07-03T02:42:41;12.70;;;11.70;;
53040;SDS011;39326;42.650;23.248;2022-07-03T02:45:14;13.13;;;11.97;;
53040;SDS011;39326;42.650;23.248;2022-07-03T02:47:51;12.93;;;12.02;;
53040;SDS011;39326;42.650;23.248;2022-07-03T02:50:33;13.57;;;12.57;;
53040;SDS011;39326;42.650;23.248;2022-07-03T02:55:43;13.50;;;12.30;;
53040;SDS011;39326;42.650;23.248;2022-07-03T03:01:00;14.48;;;13.20;;
53040;SDS011;39326;42.650;23.248;2022-07-03T03:03:32;15.20;;;13.90;;
53040;SDS011;39326;42.650;23.248;2022-07-03T03:06:00;13.63;;;12.45;;
53040;SDS011;39326;42.650;23.248;2022-07-03T03:08:35;14.13;;;12.82;;
53040;SDS011;39326;42.650;23.248;2022-07-03T03:11:07;13.37;;;12.27;;
53040;SDS011;39326;42.650;23.248;2022-07-03T03:13:34;14.17;;;12.87;;
53040;SDS011;39326;42.650;23.248;2022-07-03T03:16:03;13.17;;;12.07;;
53040;SDS011;39326;42.650;23.248;2022-07-03T03:18:40;13.63;;;12.53;;
53040;SDS011;39326;42.650;23.248;2022-07-03T03:21:09;14.73;;;12.80;;
53040;SDS011;39326;42.650;23.248;2022-07-03T03:23:46;13.65;;;12.55;;
53040;SDS011;39326;42.650;23.248;2022-07-03T03:28:46;13.00;;;11.93;;
53040;SDS011;39326;42.650;23.248;2022-07-03T03:31:13;12.93;;;11.90;;
53040;SDS011;39326;42.650;23.248;2022-07-03T03:33:39;12.50;;;11.50;;
53040;SDS011;39326;42.650;23.248;2022-07-03T03:36:07;12.83;;;11.83;;
53040;SDS011;39326;42.650;23.248;2022-07-03T03:38:34;12.53;;;11.50;;
53040;SDS011;39326;42.650;23.248;2022-07-03T03:41:01;11.30;;;10.33;;
53040;SDS011;39326;42.650;23.248;2022-07-03T03:43:28;12.97;;;11.87;;
53040;SDS011;39326;42.650;23.248;2022-07-03T03:45:54;12.17;;;11.03;;
53040;SDS011;39326;42.650;23.248;2022-07-03T03:48:20;12.70;;;11.57;;
53040;SDS011;39326;42.650;23.248;2022-07-03T03:50:46;14.02;;;13.02;;
53040;SDS011;39326;42.650;23.248;2022-07-03T03:53:13;13.77;;;12.57;;
53040;SDS011;39326;42.650;23.248;2022-07-03T03:58:27;14.87;;;13.73;;
53040;SDS011;39326;42.650;23.248;2022-07-03T04:00:57;15.25;;;14.05;;
53040;SDS011;39326;42.650;23.248;2022-07-03T04:03:24;14.87;;;13.83;;
53040;SDS011;39326;42.650;23.248;2022-07-03T04:05:51;16.67;;;15.27;;
53040;SDS011;39326;42.650;23.248;2022-07-03T04:08:18;15.25;;;13.98;;
53040;SDS011;39326;42.650;23.248;2022-07-03T04:10:45;17.40;;;16.02;;
53040;SDS011;39326;42.650;23.248;2022-07-03T04:13:11;16.70;;;15.40;;
53040;SDS011;39326;42.650;23.248;2022-07-03T04:15:38;15.70;;;14.50;;
53040;SDS011;39326;42.650;23.248;2022-07-03T04:18:05;15.80;;;14.57;;
53040;SDS011;39326;42.650;23.248;2022-07-03T04:20:31;16.63;;;15.43;;
53040;SDS011;39326;42.650;23.248;2022-07-03T04:22:58;15.80;;;14.70;;
53040;SDS011;39326;42.650;23.248;2022-07-03T04:25:24;16.40;;;15.02;;
53040;SDS011;39326;42.650;23.248;2022-07-03T04:27:51;15.82;;;14.52;;
53040;SDS011;39326;42.650;23.248;2022-07-03T04:30:17;14.32;;;12.98;;
53040;SDS011;39326;42.650;23.248;2022-07-03T04:32:43;14.88;;;13.73;;
53040;SDS011;39326;42.650;23.248;2022-07-03T04:35:10;15.00;;;13.90;;
53040;SDS011;39326;42.650;23.248;2022-07-03T04:37:36;14.93;;;13.50;;
53040;SDS011;39326;42.650;23.248;2022-07-03T04:40:03;14.98;;;13.70;;
53040;SDS011;39326;42.650;23.248;2022-07-03T04:42:29;15.18;;;13.88;;
53040;SDS011;39326;42.650;23.248;2022-07-03T04:44:55;13.55;;;12.48;;
53040;SDS011;39326;42.650;23.248;2022-07-03T04:47:21;14.55;;;13.55;;
53040;SDS011;39326;42.650;23.248;2022-07-03T04:49:47;13.82;;;12.73;;
53040;SDS011;39326;42.650;23.248;2022-07-03T04:52:14;14.27;;;13.10;;
53040;SDS011;39326;42.650;23.248;2022-07-03T04:54:40;13.23;;;12.23;;
53040;SDS011;39326;42.650;23.248;2022-07-03T04:57:06;13.98;;;12.90;;
53040;SDS011;39326;42.650;23.248;2022-07-03T04:59:32;14.02;;;12.93;;
53040;SDS011;39326;42.650;23.248;2022-07-03T05:01:58;14.85;;;13.85;;
53040;SDS011;39326;42.650;23.248;2022-07-03T05:04:24;13.77;;;12.48;;
53040;SDS011;39326;42.650;23.248;2022-07-03T05:06:50;13.43;;;12.23;;
53040;SDS011;39326;42.650;23.248;2022-07-03T05:09:16;14.02;;;12.93;;
53040;SDS011;39326;42.650;23.248;2022-07-03T05:11:43;12.95;;;11.77;;
53040;SDS011;39326;42.650;23.248;2022-07-03T05:14:10;12.45;;;11.45;;
53040;SDS011;39326;42.650;23.248;2022-07-03T05:16:36;13.75;;;12.55;;
53040;SDS011;39326;42.650;23.248;2022-07-03T05:19:02;13.13;;;12.07;;
53040;SDS011;39326;42.650;23.248;2022-07-03T05:21:28;13.77;;;12.73;;
53040;SDS011;39326;42.650;23.248;2022-07-03T05:23:54;13.38;;;12.38;;
53040;SDS011;39326;42.650;23.248;2022-07-03T05:26:21;12.63;;;11.38;;
53040;SDS011;39326;42.650;23.248;2022-07-03T05:28:48;14.25;;;13.13;;
53040;SDS011;39326;42.650;23.248;2022-07-03T05:31:14;13.82;;;12.73;;
53040;SDS011;39326;42.650;23.248;2022-07-03T05:33:41;13.80;;;12.77;;
53040;SDS011;39326;42.650;23.248;2022-07-03T05:36:07;13.02;;;11.93;;
53040;SDS011;39326;42.650;23.248;2022-07-03T05:38:33;13.77;;;12.82;;
53040;SDS011;39326;42.650;23.248;2022-07-03T05:41:18;13.40;;;12.40;;
53040;SDS011;39326;42.650;23.248;2022-07-03T05:43:44;13.52;;;12.52;;
53040;SDS011;39326;42.650;23.248;2022-07-03T05:46:10;13.32;;;11.98;;
53040;SDS011;39326;42.650;23.248;2022-07-03T05:48:36;13.35;;;12.35;;
53040;SDS011;39326;42.650;23.248;2022-07-03T05:51:02;13.73;;;12.73;;
53040;SDS011;39326;42.650;23.248;2022-07-03T05:53:28;13.15;;;12.05;;
53040;SDS011;39326;42.650;23.248;2022-07-03T05:55:55;13.15;;;11.95;;
53040;SDS011;39326;42.650;23.248;2022-07-03T05:58:21;13.45;;;12.45;;
53040;SDS011;39326;42.650;23.248;2022-07-03T06:00:47;13.40;;;12.40;;
53040;SDS011;39326;42.650;23.248;2022-07-03T06:03:13;13.40;;;12.38;;
53040;SDS011;39326;42.650;23.248;2022-07-03T06:05:39;13.13;;;12.20;;
53040;SDS011;39326;42.650;23.248;2022-07-03T06:08:05;13.43;;;12.32;;
53040;SDS011;39326;42.650;23.248;2022-07-03T06:10:31;13.77;;;12.57;;
53040;SDS011;39326;42.650;23.248;2022-07-03T06:12:57;13.05;;;11.95;;
53040;SDS011;39326;42.650;23.248;2022-07-03T06:15:24;13.00;;;12.10;;
53040;SDS011;39326;42.650;23.248;2022-07-03T06:17:50;13.70;;;12.50;;
53040;SDS011;39326;42.650;23.248;2022-07-03T06:20:16;13.52;;;12.32;;
53040;SDS011;39326;42.650;23.248;2022-07-03T06:22:42;13.30;;;12.05;;
53040;SDS011;39326;42.650;23.248;2022-07-03T06:25:08;12.80;;;11.70;;
53040;SDS011;39326;42.650;23.248;2022-07-03T06:27:34;13.65;;;12.55;;
53040;SDS011;39326;42.650;23.248;2022-07-03T06:30:01;14.98;;;13.77;;
53040;SDS011;39326;42.650;23.248;2022-07-03T06:32:27;14.75;;;13.48;;
53040;SDS011;39326;42.650;23.248;2022-07-03T06:34:53;14.05;;;13.02;;
53040;SDS011;39326;42.650;23.248;2022-07-03T06:37:20;13.43;;;12.43;;
53040;SDS011;39326;42.650;23.248;2022-07-03T06:39:46;12.93;;;11.82;;
53040;SDS011;39326;42.650;23.248;2022-07-03T06:42:13;13.50;;;12.57;;
53040;SDS011;39326;42.650;23.248;2022-07-03T06:44:39;15.38;;;13.98;;
53040;SDS011;39326;42.650;23.248;2022-07-03T06:47:06;13.75;;;12.55;;
53040;SDS011;39326;42.650;23.248;2022-07-03T06:49:32;13.52;;;12.55;;
53040;SDS011;39326;42.650;23.248;2022-07-03T06:51:59;15.38;;;14.02;;
53040;SDS011;39326;42.650;23.248;2022-07-03T06:54:25;13.85;;;12.65;;
53040;SDS011;39326;42.650;23.248;2022-07-03T06:56:51;13.23;;;12.07;;
53040;SDS011;39326;42.650;23.248;2022-07-03T06:59:17;12.95;;;12.02;;
53040;SDS011;39326;42.650;23.248;2022-07-03T07:01:44;14.02;;;12.93;;
53040;SDS011;39326;42.650;23.248;2022-07-03T07:04:10;13.20;;;12.25;;
53040;SDS011;39326;42.650;23.248;2022-07-03T07:06:36;15.02;;;13.70;;
53040;SDS011;39326;42.650;23.248;2022-07-03T07:09:03;14.65;;;13.23;;
53040;SDS011;39326;42.650;23.248;2022-07-03T07:11:29;13.13;;;12.23;;
53040;SDS011;39326;42.650;23.248;2022-07-03T07:13:56;14.35;;;13.15;;
53040;SDS011;39326;42.650;23.248;2022-07-03T07:16:22;14.43;;;13.13;;
53040;SDS011;39326;42.650;23.248;2022-07-03T07:18:48;14.48;;;13.25;;
53040;SDS011;39326;42.650;23.248;2022-07-03T07:21:14;13.25;;;12.23;;
53040;SDS011;39326;42.650;23.248;2022-07-03T07:23:40;12.70;;;11.70;;
53040;SDS011;39326;42.650;23.248;2022-07-03T07:26:06;13.25;;;12.25;;
53040;SDS011;39326;42.650;23.248;2022-07-03T07:28:33;12.52;;;11.63;;
53040;SDS011;39326;42.650;23.248;2022-07-03T07:31:00;13.52;;;12.50;;
53040;SDS011;39326;42.650;23.248;2022-07-03T07:33:27;13.40;;;12.10;;
53040;SDS011;39326;42.650;23.248;2022-07-03T07:35:53;14.35;;;13.10;;
53040;SDS011;39326;42.650;23.248;2022-07-03T07:38:19;15.00;;;13.70;;
53040;SDS011;39326;42.650;23.248;2022-07-03T07:40:46;12.98;;;11.98;;
53040;SDS011;39326;42.650;23.248;2022-07-03T07:43:12;12.82;;;11.73;;
53040;SDS011;39326;42.650;23.248;2022-07-03T07:45:37;12.68;;;11.77;;
53040;SDS011;39326;42.650;23.248;2022-07-03T07:48:04;12.88;;;11.65;;
53040;SDS011;39326;42.650;23.248;2022-07-03T07:50:31;12.77;;;11.57;;
53040;SDS011;39326;42.650;23.248;2022-07-03T07:52:57;13.10;;;11.98;;
53040;SDS011;39326;42.650;23.248;2022-07-03T07:55:24;13.07;;;12.07;;
53040;SDS011;39326;42.650;23.248;2022-07-03T07:57:50;12.98;;;11.82;;
53040;SDS011;39326;42.650;23.248;2022-07-03T08:00:17;11.55;;;10.75;;
53040;SDS011;39326;42.650;23.248;2022-07-03T08:02:45;13.13;;;11.93;;
53040;SDS011;39326;42.650;23.248;2022-07-03T08:05:30;12.25;;;11.25;;
53040;SDS011;39326;42.650;23.248;2022-07-03T08:08:06;11.85;;;10.65;;
53040;SDS011;39326;42.650;23.248;2022-07-03T08:10:43;12.25;;;11.18;;
53040;SDS011;39326;42.650;23.248;2022-07-03T08:13:09;11.80;;;10.80;;
53040;SDS011;39326;42.650;23.248;2022-07-03T08:15:37;12.60;;;11.60;;
53040;SDS011;39326;42.650;23.248;2022-07-03T08:18:03;12.20;;;11.30;;
53040;SDS011;39326;42.650;23.248;2022-07-03T08:20:30;12.77;;;11.52;;
53040;SDS011;39326;42.650;23.248;2022-07-03T08:22:56;11.57;;;10.55;;
53040;SDS011;39326;42.650;23.248;2022-07-03T08:25:23;11.60;;;10.77;;
53040;SDS011;39326;42.650;23.248;2022-07-03T08:27:49;12.07;;;11.10;;
53040;SDS011;39326;42.650;23.248;2022-07-03T08:30:16;12.25;;;11.25;;
53040;SDS011;39326;42.650;23.248;2022-07-03T08:32:46;12.70;;;11.52;;
53040;SDS011;39326;42.650;23.248;2022-07-03T08:35:14;11.95;;;10.60;;
53040;SDS011;39326;42.650;23.248;2022-07-03T08:37:40;12.07;;;11.18;;
53040;SDS011;39326;42.650;23.248;2022-07-03T08:40:06;10.68;;;9.88;;
53040;SDS011;39326;42.650;23.248;2022-07-03T08:42:34;10.90;;;10.00;;
53040;SDS011;39326;42.650;23.248;2022-07-03T08:45:02;10.65;;;9.82;;
53040;SDS011;39326;42.650;23.248;2022-07-03T08:47:30;10.63;;;9.75;;
53040;SDS011;39326;42.650;23.248;2022-07-03T08:50:00;11.48;;;10.27;;
53040;SDS011;39326;42.650;23.248;2022-07-03T08:52:27;11.65;;;10.55;;
53040;SDS011;39326;42.650;23.248;2022-07-03T08:54:53;10.63;;;9.45;;
53040;SDS011;39326;42.650;23.248;2022-07-03T08:57:19;9.75;;;9.00;;
53040;SDS011;39326;42.650;23.248;2022-07-03T08:59:46;10.38;;;9.57;;
53040;SDS011;39326;42.650;23.248;2022-07-03T09:02:17;10.55;;;9.55;;
53040;SDS011;39326;42.650;23.248;2022-07-03T09:04:43;10.25;;;9.50;;
53040;SDS011;39326;42.650;23.248;2022-07-03T09:07:10;11.57;;;10.70;;
53040;SDS011;39326;42.650;23.248;2022-07-03T09:09:38;11.77;;;10.57;;
53040;SDS011;39326;42.650;23.248;2022-07-03T09:12:05;8.82;;;8.07;;
53040;SDS011;39326;42.650;23.248;2022-07-03T09:14:32;9.25;;;8.52;;
53040;SDS011;39326;42.650;23.248;2022-07-03T09:16:58;9.02;;;8.32;;
53040;SDS011;39326;42.650;23.248;2022-07-03T09:22:30;9.23;;;8.43;;
53040;SDS011;39326;42.650;23.248;2022-07-03T09:25:12;12.70;;;7.80;;
53040;SDS011;39326;42.650;23.248;2022-07-03T09:27:50;8.23;;;7.55;;
53040;SDS011;39326;42.650;23.248;2022-07-03T09:30:17;8.43;;;7.60;;
53040;SDS011;39326;42.650;23.248;2022-07-03T09:32:44;8.50;;;7.70;;
53040;SDS011;39326;42.650;23.248;2022-07-03T09:35:24;8.35;;;7.72;;
53040;SDS011;39326;42.650;23.248;2022-07-03T09:43:15;6.63;;;6.13;;
53040;SDS011;39326;42.650;23.248;2022-07-03T09:53:44;6.07;;;5.50;;
53040;SDS011;39326;42.650;23.248;2022-07-03T09:56:10;5.95;;;5.35;;
53040;SDS011;39326;42.650;23.248;2022-07-03T09:58:37;6.68;;;5.88;;
53040;SDS011;39326;42.650;23.248;2022-07-03T10:01:18;6.32;;;5.82;;
53040;SDS011;39326;42.650;23.248;2022-07-03T10:03:44;6.18;;;5.78;;
53040;SDS011;39326;42.650;23.248;2022-07-03T10:06:13;6.18;;;5.68;;
53040;SDS011;39326;42.650;23.248;2022-07-03T10:08:39;6.05;;;5.55;;
53040;SDS011;39326;42.650;23.248;2022-07-03T10:11:08;5.95;;;5.28;;
53040;SDS011;39326;42.650;23.248;2022-07-03T10:13:38;5.13;;;4.72;;
53040;SDS011;39326;42.650;23.248;2022-07-03T10:16:06;4.93;;;4.50;;
53040;SDS011;39326;42.650;23.248;2022-07-03T10:18:35;5.50;;;5.00;;
53040;SDS011;39326;42.650;23.248;2022-07-03T10:21:05;5.60;;;5.20;;
53040;SDS011;39326;42.650;23.248;2022-07-03T10:23:32;5.65;;;5.05;;
53040;SDS011;39326;42.650;23.248;2022-07-03T10:25:59;5.43;;;4.90;;
53040;SDS011;39326;42.650;23.248;2022-07-03T10:28:25;5.50;;;4.75;;
53040;SDS011;39326;42.650;23.248;2022-07-03T10:30:53;6.93;;;5.15;;
53040;SDS011;39326;42.650;23.248;2022-07-03T10:33:20;6.85;;;4.70;;
53040;SDS011;39326;42.650;23.248;2022-07-03T10:35:51;5.80;;;4.80;;
53040;SDS011;39326;42.650;23.248;2022-07-03T10:38:30;5.80;;;4.68;;
53040;SDS011;39326;42.650;23.248;2022-07-03T10:44:12;5.00;;;4.50;;
53040;SDS011;39326;42.650;23.248;2022-07-03T10:46:57;4.95;;;4.53;;
53040;SDS011;39326;42.650;23.248;2022-07-03T10:49:23;4.28;;;3.95;;
53040;SDS011;39326;42.650;23.248;2022-07-03T10:57:05;4.90;;;4.45;;
53040;SDS011;39326;42.650;23.248;2022-07-03T11:18:10;4.32;;;4.03;;
53040;SDS011;39326;42.650;23.248;2022-07-03T11:23:19;6.63;;;4.22;;
53040;SDS011;39326;42.650;23.248;2022-07-03T11:25:53;5.53;;;5.03;;
53040;SDS011;39326;42.650;23.248;2022-07-03T11:33:57;4.55;;;4.25;;
53040;SDS011;39326;42.650;23.248;2022-07-03T11:36:30;5.18;;;4.55;;
53040;SDS011;39326;42.650;23.248;2022-07-03T11:41:27;4.20;;;4.00;;
53040;SDS011;39326;42.650;23.248;2022-07-03T11:44:03;4.90;;;4.45;;
53040;SDS011;39326;42.650;23.248;2022-07-03T11:46:31;4.88;;;4.47;;
53040;SDS011;39326;42.650;23.248;2022-07-03T11:51:39;5.00;;;4.60;;
53040;SDS011;39326;42.650;23.248;2022-07-03T11:54:06;5.65;;;4.28;;
53040;SDS011;39326;42.650;23.248;2022-07-03T11:56:32;5.47;;;5.07;;
53040;SDS011;39326;42.650;23.248;2022-07-03T11:59:01;6.45;;;5.25;;
53040;SDS011;39326;42.650;23.248;2022-07-03T12:01:35;5.80;;;5.25;;
53040;SDS011;39326;42.650;23.248;2022-07-03T12:04:05;4.93;;;4.53;;
53040;SDS011;39326;42.650;23.248;2022-07-03T12:06:42;4.53;;;4.22;;
53040;SDS011;39326;42.650;23.248;2022-07-03T12:11:55;5.60;;;5.20;;
53040;SDS011;39326;42.650;23.248;2022-07-03T12:14:42;5.47;;;4.72;;
53040;SDS011;39326;42.650;23.248;2022-07-03T12:17:10;6.10;;;5.47;;
53040;SDS011;39326;42.650;23.248;2022-07-03T12:19:37;5.22;;;4.82;;
53040;SDS011;39326;42.650;23.248;2022-07-03T12:22:24;6.72;;;6.07;;
53040;SDS011;39326;42.650;23.248;2022-07-03T12:27:28;7.80;;;6.00;;
53040;SDS011;39326;42.650;23.248;2022-07-03T12:29:58;6.80;;;6.20;;
53040;SDS011;39326;42.650;23.248;2022-07-03T12:32:25;5.60;;;5.20;;
53040;SDS011;39326;42.650;23.248;2022-07-03T12:34:52;5.97;;;5.47;;
53040;SDS011;39326;42.650;23.248;2022-07-03T12:37:30;5.72;;;5.22;;
53040;SDS011;39326;42.650;23.248;2022-07-03T12:39:59;6.32;;;5.57;;
53040;SDS011;39326;42.650;23.248;2022-07-03T12:42:25;5.82;;;5.40;;
53040;SDS011;39326;42.650;23.248;2022-07-03T12:45:01;5.55;;;5.00;;
53040;SDS011;39326;42.650;23.248;2022-07-03T12:47:29;5.20;;;4.85;;
53040;SDS011;39326;42.650;23.248;2022-07-03T12:49:56;5.60;;;5.10;;
53040;SDS011;39326;42.650;23.248;2022-07-03T12:52:28;5.22;;;4.53;;
53040;SDS011;39326;42.650;23.248;2022-07-03T12:54:55;5.30;;;5.00;;
53040;SDS011;39326;42.650;23.248;2022-07-03T12:57:22;6.40;;;5.80;;
53040;SDS011;39326;42.650;23.248;2022-07-03T13:00:08;7.00;;;6.40;;
53040;SDS011;39326;42.650;23.248;2022-07-03T13:02:35;7.70;;;6.22;;
53040;SDS011;39326;42.650;23.248;2022-07-03T13:05:13;6.00;;;5.30;;
53040;SDS011;39326;42.650;23.248;2022-07-03T13:07:44;5.85;;;5.35;;
53040;SDS011;39326;42.650;23.248;2022-07-03T13:10:12;5.05;;;4.72;;
53040;SDS011;39326;42.650;23.248;2022-07-03T13:15:20;6.18;;;5.55;;
53040;SDS011;39326;42.650;23.248;2022-07-03T13:22:52;6.20;;;5.60;;
53040;SDS011;39326;42.650;23.248;2022-07-03T13:25:19;5.32;;;4.93;;
53040;SDS011;39326;42.650;23.248;2022-07-03T13:27:46;5.43;;;5.03;;
53040;SDS011;39326;42.650;23.248;2022-07-03T13:30:13;5.53;;;5.13;;
53040;SDS011;39326;42.650;23.248;2022-07-03T13:32:40;6.03;;;5.53;;
53040;SDS011;39326;42.650;23.248;2022-07-03T13:35:07;6.18;;;5.68;;
53040;SDS011;39326;42.650;23.248;2022-07-03T13:37:33;5.47;;;5.07;;
53040;SDS011;39326;42.650;23.248;2022-07-03T13:40:03;6.07;;;5.47;;
53040;SDS011;39326;42.650;23.248;2022-07-03T13:42:30;5.63;;;5.22;;
53040;SDS011;39326;42.650;23.248;2022-07-03T13:44:57;5.72;;;5.13;;
53040;SDS011;39326;42.650;23.248;2022-07-03T13:47:23;5.03;;;4.63;;
53040;SDS011;39326;42.650;23.248;2022-07-03T13:49:49;5.97;;;5.53;;
53040;SDS011;39326;42.650;23.248;2022-07-03T13:52:16;5.95;;;5.00;;
53040;SDS011;39326;42.650;23.248;2022-07-03T13:54:41;6.07;;;5.60;;
53040;SDS011;39326;42.650;23.248;2022-07-03T13:57:07;6.03;;;5.45;;
53040;SDS011;39326;42.650;23.248;2022-07-03T13:59:33;5.78;;;5.38;;
53040;SDS011;39326;42.650;23.248;2022-07-03T14:01:59;6.65;;;4.80;;
53040;SDS011;39326;42.650;23.248;2022-07-03T14:04:25;5.75;;;5.35;;
53040;SDS011;39326;42.650;23.248;2022-07-03T14:06:51;6.15;;;5.50;;
53040;SDS011;39326;42.650;23.248;2022-07-03T14:09:18;5.60;;;5.10;;
53040;SDS011;39326;42.650;23.248;2022-07-03T14:11:44;6.05;;;5.60;;
53040;SDS011;39326;42.650;23.248;2022-07-03T14:14:11;7.25;;;6.57;;
53040;SDS011;39326;42.650;23.248;2022-07-03T14:16:37;6.72;;;6.13;;
53040;SDS011;39326;42.650;23.248;2022-07-03T14:19:03;6.10;;;5.60;;
53040;SDS011;39326;42.650;23.248;2022-07-03T14:21:31;8.70;;;6.00;;
53040;SDS011;39326;42.650;23.248;2022-07-03T14:23:58;6.30;;;5.80;;
53040;SDS011;39326;42.650;23.248;2022-07-03T14:26:25;6.10;;;5.57;;
53040;SDS011;39326;42.650;23.248;2022-07-03T14:29:10;6.18;;;5.68;;
53040;SDS011;39326;42.650;23.248;2022-07-03T14:31:58;5.72;;;5.22;;
53040;SDS011;39326;42.650;23.248;2022-07-03T14:34:42;6.47;;;5.82;;
53040;SDS011;39326;42.650;23.248;2022-07-03T14:37:08;6.00;;;5.47;;
53040;SDS011;39326;42.650;23.248;2022-07-03T14:39:34;8.25;;;6.32;;
53040;SDS011;39326;42.650;23.248;2022-07-03T14:42:00;6.88;;;6.18;;
53040;SDS011;39326;42.650;23.248;2022-07-03T14:44:28;7.75;;;7.00;;
53040;SDS011;39326;42.650;23.248;2022-07-03T14:46:55;6.82;;;6.25;;
53040;SDS011;39326;42.650;23.248;2022-07-03T14:49:21;6.20;;;5.80;;
53040;SDS011;39326;42.650;23.248;2022-07-03T14:51:47;6.75;;;6.10;;
53040;SDS011;39326;42.650;23.248;2022-07-03T14:54:16;6.78;;;6.28;;
53040;SDS011;39326;42.650;23.248;2022-07-03T14:56:51;6.50;;;6.00;;
53040;SDS011;39326;42.650;23.248;2022-07-03T14:59:19;7.20;;;6.60;;
53040;SDS011;39326;42.650;23.248;2022-07-03T15:02:01;7.03;;;6.43;;
53040;SDS011;39326;42.650;23.248;2022-07-03T15:04:38;7.15;;;6.50;;
53040;SDS011;39326;42.650;23.248;2022-07-03T15:07:10;6.70;;;6.20;;
53040;SDS011;39326;42.650;23.248;2022-07-03T15:09:40;8.30;;;6.05;;
53040;SDS011;39326;42.650;23.248;2022-07-03T15:12:17;6.82;;;6.22;;
53040;SDS011;39326;42.650;23.248;2022-07-03T15:14:54;6.43;;;5.80;;
53040;SDS011;39326;42.650;23.248;2022-07-03T15:17:22;7.07;;;6.13;;
53040;SDS011;39326;42.650;23.248;2022-07-03T15:19:50;6.95;;;6.30;;
53040;SDS011;39326;42.650;23.248;2022-07-03T15:22:20;6.03;;;5.30;;
53040;SDS011;39326;42.650;23.248;2022-07-03T15:24:49;8.18;;;6.00;;
53040;SDS011;39326;42.650;23.248;2022-07-03T15:27:18;7.78;;;5.88;;
53040;SDS011;39326;42.650;23.248;2022-07-03T15:29:46;6.57;;;5.93;;
53040;SDS011;39326;42.650;23.248;2022-07-03T15:32:12;6.40;;;6.00;;
53040;SDS011;39326;42.650;23.248;2022-07-03T15:34:41;7.80;;;6.30;;
53040;SDS011;39326;42.650;23.248;2022-07-03T15:45:50;14.10;;;7.05;;
53040;SDS011;39326;42.650;23.248;2022-07-03T15:54:03;6.18;;;5.68;;
53040;SDS011;39326;42.650;23.248;2022-07-03T15:56:35;6.53;;;6.07;;
53040;SDS011;39326;42.650;23.248;2022-07-03T15:59:03;6.90;;;6.30;;
53040;SDS011;39326;42.650;23.248;2022-07-03T16:01:33;6.90;;;6.35;;
53040;SDS011;39326;42.650;23.248;2022-07-03T16:04:34;6.72;;;6.22;;
53040;SDS011;39326;42.650;23.248;2022-07-03T16:07:07;7.18;;;6.43;;
53040;SDS011;39326;42.650;23.248;2022-07-03T16:09:35;7.15;;;6.45;;
53040;SDS011;39326;42.650;23.248;2022-07-03T16:12:02;7.00;;;6.50;;
53040;SDS011;39326;42.650;23.248;2022-07-03T16:14:28;6.90;;;6.38;;
53040;SDS011;39326;42.650;23.248;2022-07-03T16:17:01;7.15;;;6.40;;
53040;SDS011;39326;42.650;23.248;2022-07-03T16:19:32;6.50;;;6.03;;
53040;SDS011;39326;42.650;23.248;2022-07-03T16:22:00;7.20;;;6.70;;